メインページ
METAR-TAF:

METAR-TAF

空港 :

ハガニア, グアム, アメリカ合衆国

グアム国際空港

緯度: 13-29N, 経度: 144-48E, 海抜: 91m

現時点の気象観測

当レポートは33分前の12:30(UTC)に作成
の風 11kt、最大20ktの突風を伴う
気温 26°C
湿度 100%
気圧 1013 hPa
視程: 4.8km
高度2100ftの雲はほとんどない
高度3400ftの千切れ雲あり
高度4800ftの曇り
大雨, 靄

METAR: PGUM 241230Z 09011G20KT 3SM +RA BR FEW021 BKN034 OVC048 26/26 A2992 RMK AO2 P0005 T02610256

時間: 23:03 (13:03 UTC)

予報

当レポートは1時間28分前の11:35(UTC)に作成
予報は24日の 12時(UTC)から 25日の 18時(UTC)まで有効
東/北東の風 14kt
視程: 10km
高度2000ftの雲は散在している
高度3000ftの雲は散在している
近辺でにわか雨

TAF: PGUM 241135Z 2412/2518 07014KT P6SM VCSH SCT020 SCT030

4,000以上の空港の気象観測と天気予報(METAR報とTAF報)

利用可能な観測所は地図上に黄色い丸と赤い丸で示す。

丸の上にカーソルを重ねると観測所名を参照できる。

次にクリックすると気象観測と天気予報を参照できる。

マップの切り替え:黒色「×」印の緑ボタンをクリックして拡大、「-」印の緑ボタンをクリックして縮小、緑色の三角印をクリックして隣りの地図に切り替え


METAR-TAF: